Time;durP1;ratioP1;P1;durP2;ratioP2;P2;SDS_P1;SDS_P2;PMS_P1;PMS_P2;Temp;Humidity;BMP_temperature;BMP_pressure;BME280_temperature;BME280_humidity;BME280_pressure;Samples;Min_cycle;Max_cycle;Signal;HPM_P1;HPM_P2
2022/06/19 00:01:29;;;;;;;4.65;1.90;;;22.50;56.70;;;;;;5068655;28;20052;-72
2022/06/19 00:04:03;;;;;;;3.30;1.50;;;22.40;56.30;;;;;;5069939;28;20142;-72
2022/06/19 00:06:31;;;;;;;3.90;1.60;;;22.40;56.40;;;;;;5069229;28;20052;-72
2022/06/19 00:08:58;;;;;;;4.53;1.52;;;22.40;56.40;;;;;;5069924;28;20129;-72
2022/06/19 00:11:25;;;;;;;4.38;1.75;;;22.30;60.10;;;;;;5050734;28;20055;-72
2022/06/19 00:13:51;;;;;;;3.28;1.33;;;22.40;56.40;;;;;;5048731;28;20061;-72
2022/06/19 00:16:18;;;;;;;4.20;1.60;;;22.40;56.40;;;;;;5049018;28;20059;-72
2022/06/19 00:18:45;;;;;;;3.42;1.40;;;22.40;56.40;;;;;;5048755;28;20081;-72
2022/06/19 00:21:15;;;;;;;4.03;1.60;;;22.40;56.40;;;;;;5050551;28;20076;-72
2022/06/19 00:23:43;;;;;;;4.18;1.55;;;22.50;60.30;;;;;;5048800;28;20425;-72
2022/06/19 00:26:10;;;;;;;4.18;1.88;;;22.30;59.70;;;;;;5049741;28;20048;-72
2022/06/19 00:28:37;;;;;;;4.13;1.92;;;22.30;59.20;;;;;;5056829;28;20127;-72
2022/06/19 00:31:04;;;;;;;21.15;2.15;;;22.30;56.40;;;;;;5068912;28;20062;-72
2022/06/19 00:33:30;;;;;;;4.07;1.80;;;23.40;60.50;;;;;;5068306;28;20069;-72
2022/06/19 00:35:57;;;;;;;4.78;1.60;;;22.30;56.40;;;;;;5068514;28;20063;-72
2022/06/19 00:38:24;;;;;;;4.15;1.52;;;22.30;56.40;;;;;;5070068;28;20070;-72
2022/06/19 00:40:54;;;;;;;6.18;1.85;;;22.10;58.90;;;;;;5069905;28;20049;-73
2022/06/19 00:43:21;;;;;;;4.28;1.40;;;22.30;56.40;;;;;;5064074;28;20049;-72
2022/06/19 00:45:50;;;;;;;2.45;1.40;;;22.30;56.40;;;;;;5048048;28;20611;-72
2022/06/19 00:48:17;;;;;;;3.10;1.60;;;22.10;58.70;;;;;;5048148;28;20057;-72
2022/06/19 00:50:45;;;;;;;2.75;1.35;;;22.20;56.40;;;;;;5047929;28;20060;-72
2022/06/19 00:53:14;;;;;;;3.05;1.50;;;22.30;56.50;;;;;;5049406;28;20145;-72
2022/06/19 00:55:42;;;;;;;4.57;1.77;;;21.60;60.00;;;;;;5048407;28;20056;-72
2022/06/19 00:58:12;;;;;;;4.18;1.40;;;22.80;59.40;;;;;;5068751;28;20048;-72
2022/06/19 01:00:39;;;;;;;3.50;1.60;;;22.20;56.40;;;;;;5058248;28;20476;-72
2022/06/19 01:03:09;;;;;;;3.58;1.65;;;22.20;59.40;;;;;;5067967;28;20062;-72
2022/06/19 01:05:36;;;;;;;2.83;1.15;;;22.20;56.40;;;;;;5069367;28;20070;-72
2022/06/19 01:08:03;;;;;;;3.75;1.63;;;22.20;56.50;;;;;;5067874;28;20113;-72
2022/06/19 01:10:30;;;;;;;3.80;1.50;;;22.20;60.40;;;;;;5068017;28;20174;-72
2022/06/19 01:12:57;;;;;;;6.25;1.95;;;22.20;56.50;;;;;;5067691;28;20054;-73
2022/06/19 01:15:25;;;;;;;3.88;1.63;;;22.30;60.00;;;;;;5067874;28;20131;-72
2022/06/19 01:17:53;;;;;;;4.28;1.70;;;22.20;59.30;;;;;;5052878;28;20056;-72
2022/06/19 01:20:20;;;;;;;4.10;1.45;;;22.20;56.50;;;;;;5049127;28;20128;-72
2022/06/19 01:22:50;;;;;;;4.38;1.50;;;22.10;59.20;;;;;;5049028;28;20136;-72
2022/06/19 01:25:18;;;;;;;4.32;1.70;;;22.20;56.50;;;;;;5059084;28;20127;-72
2022/06/19 01:30:31;;;;;;;3.95;1.50;;;22.10;56.50;;;;;;5067903;28;20052;-72
2022/06/19 01:32:59;;;;;;;3.78;1.55;;;22.10;56.50;;;;;;5066487;28;20487;-72
2022/06/19 01:35:26;;;;;;;4.93;1.60;;;22.10;56.50;;;;;;5047462;28;20637;-72
2022/06/19 01:37:54;;;;;;;3.83;1.55;;;22.00;56.50;;;;;;5048414;28;20045;-72
2022/06/19 01:40:23;;;;;;;3.17;1.40;;;22.10;56.50;;;;;;5049091;28;20049;-72
2022/06/19 01:42:50;;;;;;;4.05;1.50;;;22.10;56.50;;;;;;5048562;28;20153;-72
2022/06/19 01:45:16;;;;;;;4.28;1.65;;;23.40;60.80;;;;;;5048654;28;20053;-72
2022/06/19 01:47:43;;;;;;;2.83;1.30;;;22.10;56.60;;;;;;5048840;28;20405;-72
2022/06/19 01:50:12;;;;;;;4.82;1.60;;;22.00;56.50;;;;;;5049861;28;20047;-72
2022/06/19 01:52:39;;;;;;;3.53;1.48;;;22.10;56.60;;;;;;5047178;28;20136;-72
2022/06/19 01:55:08;;;;;;;4.53;1.35;;;22.10;56.60;;;;;;5047452;28;20057;-72
2022/06/19 01:57:37;;;;;;;3.90;1.60;;;21.90;59.20;;;;;;5062029;28;20476;-72
2022/06/19 02:00:05;;;;;;;1.88;1.20;;;22.10;56.60;;;;;;5068851;28;20037;-72
2022/06/19 02:02:33;;;;;;;4.38;1.50;;;22.00;59.60;;;;;;5068659;28;20482;-72
2022/06/19 02:05:00;;;;;;;4.65;1.45;;;22.10;56.70;;;;;;5071133;28;20052;-72
2022/06/19 02:07:28;;;;;;;3.30;1.50;;;22.00;56.60;;;;;;5063502;28;20136;-72
2022/06/19 02:09:54;;;;;;;3.55;1.30;;;22.10;56.70;;;;;;5053018;28;20049;-72
2022/06/19 02:12:21;;;;;;;4.90;1.60;;;22.00;60.10;;;;;;5051220;28;20132;-72
2022/06/19 02:14:50;;;;;;;3.33;1.40;;;22.00;56.60;;;;;;5051312;28;20502;-72
2022/06/19 02:17:19;;;;;;;4.63;1.70;;;21.80;60.10;;;;;;5051551;28;20653;-72
2022/06/19 02:19:46;;;;;;;3.00;1.30;;;22.00;56.60;;;;;;5050767;28;20452;-72
2022/06/19 02:22:13;;;;;;;5.18;1.70;;;22.00;56.60;;;;;;5068525;28;20139;-72
2022/06/19 02:24:40;;;;;;;3.22;1.42;;;22.00;56.60;;;;;;5061254;28;20053;-72
2022/06/19 02:27:07;;;;;;;3.55;1.48;;;22.00;56.60;;;;;;5051053;28;20049;-72
2022/06/19 02:29:35;;;;;;;4.38;1.45;;;22.00;60.00;;;;;;5052380;28;20510;-72
2022/06/19 02:32:03;;;;;;;3.95;1.55;;;22.10;60.10;;;;;;5051164;28;20490;-72
2022/06/19 02:34:32;;;;;;;3.15;1.33;;;22.00;56.60;;;;;;5052019;28;20425;-72
2022/06/19 02:36:59;;;;;;;2.53;1.20;;;21.70;57.90;;;;;;5051930;28;20057;-72
2022/06/19 02:39:45;;;;;;;3.90;1.40;;;22.00;56.60;;;;;;5050971;28;20144;-72
2022/06/19 02:42:34;;;;;;;2.78;1.30;;;22.00;60.40;;;;;;5070227;28;20442;-72
2022/06/19 02:45:02;;;;;;;4.03;1.55;;;22.00;56.50;;;;;;5067429;28;20053;-72
2022/06/19 02:47:32;;;;;;;2.72;1.40;;;22.00;60.10;;;;;;5053126;28;20049;-72
2022/06/19 02:49:58;;;;;;;2.83;1.20;;;21.90;56.60;;;;;;5050892;28;20067;-72
2022/06/19 02:52:25;;;;;;;2.78;1.17;;;21.90;56.60;;;;;;5050732;28;20421;-72
2022/06/19 02:54:52;;;;;;;2.65;1.30;;;21.80;59.80;;;;;;5050730;28;20128;-72
2022/06/19 02:57:19;;;;;;;4.55;1.60;;;21.90;56.60;;;;;;5057292;28;20076;-72
2022/06/19 02:59:46;;;;;;;4.13;1.60;;;21.80;60.20;;;;;;5050509;28;20534;-72
2022/06/19 03:02:12;;;;;;;2.42;1.30;;;21.90;60.00;;;;;;5061910;28;20048;-72
2022/06/19 03:04:42;;;;;;;3.50;1.50;;;23.10;60.60;;;;;;5070189;28;20427;-72
2022/06/19 03:07:09;;;;;;;3.38;1.40;;;21.80;56.50;;;;;;5069999;28;20394;-72
2022/06/19 03:09:35;;;;;;;5.25;1.70;;;21.90;60.60;;;;;;5069623;28;20084;-72
2022/06/19 03:12:02;;;;;;;3.33;1.20;;;21.50;59.00;;;;;;5071773;28;20051;-72
2022/06/19 03:14:29;;;;;;;3.10;1.50;;;22.70;61.50;;;;;;5070046;28;20094;-72
2022/06/19 03:16:55;;;;;;;3.28;1.45;;;21.70;58.60;;;;;;5069877;28;20682;-73
2022/06/19 03:19:22;;;;;;;2.47;1.35;;;21.80;56.60;;;;;;5069826;28;20062;-72
2022/06/19 03:21:50;;;;;;;3.30;1.40;;;21.80;59.60;;;;;;5070249;28;20052;-72
2022/06/19 03:24:17;;;;;;;4.57;1.85;;;21.80;60.00;;;;;;5052778;28;20065;-73
2022/06/19 03:26:44;;;;;;;2.42;1.48;;;21.90;58.70;;;;;;5054895;28;20041;-73
2022/06/19 03:29:11;;;;;;;3.83;1.40;;;21.80;56.60;;;;;;5053971;28;20152;-72
2022/06/19 03:31:37;;;;;;;3.40;1.30;;;21.80;60.30;;;;;;5054207;28;20053;-73
2022/06/19 03:34:04;;;;;;;3.45;1.40;;;21.80;56.60;;;;;;5051112;28;20071;-72
2022/06/19 03:36:32;;;;;;;3.08;1.40;;;21.80;56.60;;;;;;5051068;28;20139;-72
2022/06/19 03:39:00;;;;;;;3.33;1.27;;;21.80;56.60;;;;;;5052130;28;20055;-72
2022/06/19 03:41:27;;;;;;;2.72;1.33;;;21.90;59.80;;;;;;5050746;28;20131;-72
2022/06/19 03:43:53;;;;;;;3.22;1.13;;;22.20;60.10;;;;;;5050580;28;20059;-72
2022/06/19 03:46:20;;;;;;;4.47;1.63;;;21.70;60.60;;;;;;5050698;28;20520;-72
2022/06/19 03:48:49;;;;;;;3.08;1.40;;;21.80;56.70;;;;;;5049583;28;20141;-72
2022/06/19 03:51:16;;;;;;;2.97;1.40;;;21.30;59.10;;;;;;5049787;28;20139;-72
2022/06/19 03:53:43;;;;;;;3.83;1.40;;;21.80;60.10;;;;;;5048796;28;20053;-72
2022/06/19 03:56:13;;;;;;;4.05;1.52;;;21.90;60.20;;;;;;5053279;28;20068;-72
2022/06/19 03:58:48;;;;;;;4.28;1.40;;;21.80;56.70;;;;;;5069545;28;20056;-71
2022/06/19 04:01:16;;;;;;;2.70;1.38;;;21.70;60.80;;;;;;5069064;28;20058;-72
2022/06/19 04:03:43;;;;;;;4.18;1.50;;;21.70;56.70;;;;;;5059838;28;20055;-74
2022/06/19 04:06:10;;;;;;;2.70;1.25;;;21.30;60.00;;;;;;5066896;28;20052;-72
2022/06/19 04:08:36;;;;;;;3.83;1.40;;;21.60;59.80;;;;;;5070292;28;20434;-72
2022/06/19 04:11:03;;;;;;;3.10;1.40;;;21.70;59.60;;;;;;5069243;28;20135;-72
2022/06/19 04:13:32;;;;;;;3.45;1.30;;;21.70;56.70;;;;;;5061402;28;20052;-73
2022/06/19 04:15:59;;;;;;;3.15;1.42;;;21.80;59.60;;;;;;5068998;28;20076;-73
2022/06/19 04:18:26;;;;;;;3.25;1.20;;;21.70;56.70;;;;;;5070804;28;20448;-73
2022/06/19 04:20:53;;;;;;;3.78;1.27;;;21.70;61.10;;;;;;5072807;28;20048;-73
2022/06/19 04:23:19;;;;;;;3.72;1.45;;;21.70;56.70;;;;;;5071764;28;20511;-72
2022/06/19 04:25:46;;;;;;;3.20;1.65;;;21.70;56.60;;;;;;5069563;28;20049;-72
2022/06/19 04:28:13;;;;;;;4.78;1.65;;;21.70;56.60;;;;;;5068948;28;20658;-72
2022/06/19 04:30:46;;;;;;;3.33;1.20;;;21.60;56.60;;;;;;5050695;28;20049;-72
2022/06/19 04:33:13;;;;;;;4.53;1.50;;;21.60;60.00;;;;;;5048654;28;20517;-73
2022/06/19 04:35:40;;;;;;;4.43;1.80;;;21.60;56.60;;;;;;5050456;28;20132;-72
2022/06/19 04:38:06;;;;;;;2.35;1.15;;;21.60;60.20;;;;;;5049591;28;20417;-72
2022/06/19 04:40:34;;;;;;;2.10;1.10;;;21.70;60.30;;;;;;5048877;28;20045;-72
2022/06/19 04:43:01;;;;;;;3.70;1.40;;;21.60;56.60;;;;;;5048510;28;20067;-72
2022/06/19 04:45:28;;;;;;;5.07;1.80;;;21.60;56.60;;;;;;5049777;28;20545;-72
2022/06/19 04:47:56;;;;;;;4.75;1.35;;;21.60;56.60;;;;;;5052149;28;20629;-73
2022/06/19 04:50:22;;;;;;;4.05;1.50;;;21.60;56.50;;;;;;5051296;28;20057;-73
2022/06/19 04:52:49;;;;;;;4.18;1.75;;;21.60;56.60;;;;;;5050619;28;20080;-73
2022/06/19 04:55:16;;;;;;;4.55;1.40;;;21.60;56.60;;;;;;5051282;28;20061;-72
2022/06/19 04:57:43;;;;;;;3.97;1.30;;;21.50;60.10;;;;;;5067864;28;20127;-73
2022/06/19 05:00:11;;;;;;;3.25;1.38;;;22.10;60.40;;;;;;5070599;28;20595;-73
2022/06/19 05:02:38;;;;;;;3.03;1.35;;;21.60;60.80;;;;;;5069877;28;20060;-72
2022/06/19 05:05:07;;;;;;;2.70;1.20;;;21.60;61.00;;;;;;5071666;28;20055;-73
2022/06/19 05:07:34;;;;;;;1.75;1.00;;;21.70;59.70;;;;;;5070319;28;20045;-73
2022/06/19 05:10:01;;;;;;;2.80;1.10;;;21.60;56.50;;;;;;5070593;28;20060;-73
2022/06/19 05:12:28;;;;;;;2.95;1.08;;;21.00;59.00;;;;;;5071497;28;20131;-73
2022/06/19 05:14:54;;;;;;;2.97;1.17;;;21.60;56.40;;;;;;5070509;28;20060;-73
2022/06/19 05:17:21;;;;;;;2.85;1.40;;;21.40;59.20;;;;;;5070620;28;20044;-73
2022/06/19 05:19:48;;;;;;;2.53;1.20;;;22.20;59.50;;;;;;5070913;28;20045;-73
2022/06/19 05:22:16;;;;;;;3.10;1.20;;;21.50;56.20;;;;;;5069745;28;20147;-71
2022/06/19 05:24:43;;;;;;;2.67;1.38;;;21.50;56.20;;;;;;5070166;28;20051;-72
2022/06/19 05:27:10;;;;;;;3.17;1.10;;;21.60;56.20;;;;;;5069016;28;20059;-73
2022/06/19 05:29:37;;;;;;;2.65;1.00;;;21.60;56.20;;;;;;5069132;28;20053;-73
2022/06/19 05:32:04;;;;;;;2.38;1.02;;;21.60;56.20;;;;;;5069950;28;20063;-73
2022/06/19 05:34:31;;;;;;;2.42;1.00;;;21.60;56.20;;;;;;5070437;28;20047;-70
2022/06/19 05:36:58;;;;;;;2.47;1.00;;;21.70;58.30;;;;;;5068278;28;20573;-73
2022/06/19 05:39:26;;;;;;;2.28;1.10;;;21.50;59.40;;;;;;5069147;28;20048;-73
2022/06/19 05:41:54;;;;;;;2.42;1.10;;;21.20;59.00;;;;;;5070895;28;20079;-74
2022/06/19 05:44:21;;;;;;;2.67;1.10;;;21.50;59.50;;;;;;5069165;28;20057;-72
2022/06/19 05:46:48;;;;;;;2.55;1.23;;;21.70;58.20;;;;;;5069521;28;20136;-72
2022/06/19 05:49:15;;;;;;;1.92;1.00;;;20.40;58.40;;;;;;5070507;28;20584;-73
2022/06/19 05:51:42;;;;;;;3.60;1.30;;;21.60;60.20;;;;;;5068429;28;20053;-73
2022/06/19 05:54:08;;;;;;;4.22;1.48;;;21.50;56.00;;;;;;5069649;28;20052;-73
2022/06/19 05:56:37;;;;;;;1.90;1.02;;;22.10;61.10;;;;;;5069781;28;20067;-73
2022/06/19 05:59:04;;;;;;;2.15;1.10;;;21.50;56.00;;;;;;5070708;28;20080;-72
2022/06/19 06:01:31;;;;;;;3.55;1.40;;;21.60;56.00;;;;;;5070998;28;20041;-73
2022/06/19 06:03:59;;;;;;;2.03;1.17;;;21.60;56.00;;;;;;5070715;28;20072;-73
2022/06/19 06:06:27;;;;;;;2.30;1.08;;;21.60;56.50;;;;;;5071582;28;20059;-73
2022/06/19 06:08:53;;;;;;;1.80;1.20;;;21.70;59.40;;;;;;5063693;28;20144;-73
2022/06/19 06:11:20;;;;;;;3.67;1.05;;;21.60;55.90;;;;;;5047500;28;20437;-72
2022/06/19 06:13:48;;;;;;;2.85;1.40;;;21.60;55.80;;;;;;5047139;28;20080;-73
2022/06/19 06:16:18;;;;;;;3.67;1.10;;;21.20;59.30;;;;;;5047536;28;20049;-72
2022/06/19 06:18:44;;;;;;;2.15;1.02;;;21.70;55.80;;;;;;5047143;28;20061;-73
2022/06/19 06:21:12;;;;;;;2.15;0.93;;;21.70;59.60;;;;;;5047054;28;20160;-72
2022/06/19 06:23:39;;;;;;;2.33;1.15;;;21.70;60.20;;;;;;5044901;28;20567;-72
2022/06/19 06:26:08;;;;;;;2.28;1.00;;;21.70;55.70;;;;;;5047495;28;20091;-72
2022/06/19 06:28:35;;;;;;;2.40;1.10;;;21.70;55.70;;;;;;5059821;28;20066;-72
2022/06/19 06:31:03;;;;;;;2.10;1.25;;;21.80;60.00;;;;;;5067157;28;20061;-72
2022/06/19 06:33:30;;;;;;;3.95;1.30;;;21.80;55.70;;;;;;5058251;28;20045;-72
2022/06/19 06:35:57;;;;;;;3.78;1.20;;;21.80;55.70;;;;;;5059071;28;20390;-72
2022/06/19 06:38:24;;;;;;;2.85;1.15;;;21.70;59.10;;;;;;5056178;28;20041;-72
2022/06/19 06:40:51;;;;;;;2.45;0.98;;;21.80;55.80;;;;;;5050057;28;20131;-76
2022/06/19 06:43:18;;;;;;;3.05;1.15;;;21.80;55.80;;;;;;5047174;28;20145;-73
2022/06/19 06:45:45;;;;;;;2.28;1.20;;;21.60;60.30;;;;;;5047367;28;20053;-72
2022/06/19 06:48:13;;;;;;;3.33;1.13;;;21.80;55.90;;;;;;5054729;28;20044;-71
2022/06/19 06:50:40;;;;;;;4.22;1.10;;;21.70;55.70;;;;;;5066291;28;20469;-72
2022/06/19 06:53:07;;;;;;;4.30;1.27;;;20.60;59.00;;;;;;5069977;28;20509;-71
2022/06/19 06:55:37;;;;;;;5.38;1.73;;;21.70;55.70;;;;;;5070214;28;20083;-71
2022/06/19 06:58:04;;;;;;;5.55;1.38;;;21.70;55.70;;;;;;5071128;28;20110;-71
2022/06/19 07:00:30;;;;;;;15.55;1.73;;;21.40;58.20;;;;;;5070115;28;20052;-72
2022/06/19 07:02:58;;;;;;;6.22;2.13;;;21.70;55.50;;;;;;5070787;28;20601;-72
2022/06/19 07:05:26;;;;;;;3.80;1.73;;;21.40;58.40;;;;;;5072139;28;20045;-71
2022/06/19 07:07:53;;;;;;;6.72;2.35;;;21.60;55.50;;;;;;5070809;28;20505;-71
2022/06/19 07:10:20;;;;;;;4.93;1.58;;;21.60;55.50;;;;;;5071624;28;20048;-71
2022/06/19 07:12:47;;;;;;;11.65;2.53;;;21.60;59.20;;;;;;5071333;28;20056;-72
2022/06/19 07:15:14;;;;;;;9.70;3.95;;;22.60;60.60;;;;;;5070693;28;20136;-72
2022/06/19 07:17:40;;;;;;;6.80;2.25;;;21.50;55.40;;;;;;5053973;28;20144;-72
2022/06/19 07:20:07;;;;;;;6.22;2.42;;;21.50;55.40;;;;;;5071369;28;20421;-72
2022/06/19 07:22:36;;;;;;;4.97;2.20;;;21.50;55.50;;;;;;5071447;28;20052;-72
2022/06/19 07:25:02;;;;;;;5.18;2.63;;;22.70;59.40;;;;;;5053925;28;20049;-72
2022/06/19 07:27:29;;;;;;;5.60;2.40;;;21.50;55.60;;;;;;5049944;28;20045;-72
2022/06/19 07:29:56;;;;;;;7.00;2.58;;;21.50;55.60;;;;;;5059112;28;20592;-72
2022/06/19 07:32:22;;;;;;;3.80;2.25;;;21.40;59.20;;;;;;5066295;28;20128;-72
2022/06/19 07:34:49;;;;;;;7.10;2.50;;;21.50;55.60;;;;;;5057131;28;20056;-72
2022/06/19 07:37:16;;;;;;;6.30;2.58;;;20.70;59.30;;;;;;5061386;28;20059;-72
2022/06/19 07:39:44;;;;;;;4.63;2.70;;;21.50;55.60;;;;;;5057756;28;20055;-72
2022/06/19 07:42:11;;;;;;;5.13;2.80;;;21.50;55.70;;;;;;5059115;28;20132;-71
2022/06/19 07:44:38;;;;;;;5.90;2.70;;;21.50;55.70;;;;;;5059255;28;20045;-72
2022/06/19 07:52:33;;;;;;;4.60;2.85;;;21.50;55.70;;;;;;5061320;28;20405;-71
2022/06/19 07:55:01;;;;;;;5.07;2.80;;;21.50;55.80;;;;;;5059415;28;20316;-72
2022/06/19 07:57:28;;;;;;;5.78;2.80;;;21.40;58.60;;;;;;5058045;28;20076;-72
2022/06/19 07:59:55;;;;;;;5.10;2.70;;;21.40;55.70;;;;;;5058064;28;20066;-72
2022/06/19 08:02:24;;;;;;;8.07;2.80;;;21.50;55.70;;;;;;5055456;28;20142;-72
2022/06/19 08:04:51;;;;;;;6.40;3.05;;;21.40;59.20;;;;;;5057307;28;20105;-72
2022/06/19 08:07:18;;;;;;;6.20;3.10;;;21.40;55.70;;;;;;5055939;28;20254;-72
2022/06/19 08:09:45;;;;;;;4.28;2.80;;;21.50;55.80;;;;;;5050996;28;20437;-72
2022/06/19 08:12:13;;;;;;;5.70;3.10;;;21.50;55.80;;;;;;5057489;28;20040;-72
2022/06/19 08:14:40;;;;;;;5.70;3.10;;;21.20;59.60;;;;;;5058339;28;20144;-72
2022/06/19 08:17:07;;;;;;;7.18;3.33;;;21.30;59.10;;;;;;5058434;28;20051;-71
2022/06/19 08:19:34;;;;;;;4.38;3.30;;;21.40;55.80;;;;;;5057490;28;20048;-72
2022/06/19 08:22:01;;;;;;;5.75;3.20;;;21.50;58.50;;;;;;5060408;28;20053;-71
2022/06/19 08:24:27;;;;;;;5.90;3.15;;;21.50;55.90;;;;;;5061127;28;20044;-71
2022/06/19 08:26:55;;;;;;;6.47;3.20;;;22.10;58.00;;;;;;5058944;28;20051;-73
2022/06/19 08:29:23;;;;;;;4.65;2.85;;;21.40;55.80;;;;;;5051516;28;20056;-71
2022/06/19 08:31:50;;;;;;;7.00;3.22;;;21.40;59.90;;;;;;5058905;28;20433;-72
2022/06/19 08:34:17;;;;;;;5.60;2.88;;;21.30;58.70;;;;;;5068202;28;20058;-72
2022/06/19 08:36:44;;;;;;;6.97;3.30;;;;;;;;;;5070058;28;20529;-72
2022/06/19 08:39:12;;;;;;;7.15;3.20;;;21.40;59.10;;;;;;5070113;28;20106;-73
2022/06/19 08:42:07;;;;;;;4.47;2.85;;;21.40;55.80;;;;;;5064099;28;20298;-72
2022/06/19 08:44:47;;;;;;;4.28;2.70;;;21.50;59.60;;;;;;5046548;28;20056;-72
2022/06/19 08:47:31;;;;;;;7.55;2.97;;;21.40;55.90;;;;;;5049361;28;20524;-72
2022/06/19 08:50:03;;;;;;;4.88;2.72;;;21.40;58.90;;;;;;5048326;28;20147;-74
2022/06/19 08:52:33;;;;;;;5.53;2.47;;;21.30;55.90;;;;;;5056365;28;20052;-72
2022/06/19 08:55:07;;;;;;;6.25;2.63;;;20.80;58.90;;;;;;5068332;28;20052;-73
2022/06/19 08:57:38;;;;;;;6.72;2.78;;;21.20;59.90;;;;;;5068207;28;20424;-72
2022/06/19 09:00:09;;;;;;;5.20;2.72;;;21.30;55.90;;;;;;5068599;28;20057;-72
2022/06/19 09:02:41;;;;;;;5.25;3.15;;;21.00;59.20;;;;;;5067738;28;20147;-72
2022/06/19 09:08:07;;;;;;;4.43;2.70;;;21.30;55.90;;;;;;5058528;28;20052;-72
2022/06/19 09:10:37;;;;;;;5.53;3.20;;;21.30;55.90;;;;;;5052536;28;20051;-71
2022/06/19 09:13:26;;;;;;;4.63;2.63;;;21.30;55.90;;;;;;5057672;28;20143;-72
2022/06/19 09:15:58;;;;;;;4.97;2.80;;;21.30;55.80;;;;;;5044209;28;20056;-72
2022/06/19 09:18:29;;;;;;;4.75;2.80;;;21.30;55.90;;;;;;5058114;28;20048;-72
2022/06/19 09:20:59;;;;;;;6.63;3.10;;;21.30;55.90;;;;;;5056231;28;20076;-72
2022/06/19 09:23:43;;;;;;;4.55;2.85;;;21.30;56.00;;;;;;5059379;28;20071;-72
2022/06/19 09:26:10;;;;;;;4.70;2.95;;;21.30;55.90;;;;;;5048479;28;20037;-72
2022/06/19 09:28:41;;;;;;;5.32;2.72;;;21.30;55.90;;;;;;5055375;28;20114;-71
2022/06/19 09:31:12;;;;;;;5.38;2.90;;;21.30;56.00;;;;;;5050735;28;20045;-72
2022/06/19 09:33:42;;;;;;;5.20;2.80;;;21.30;55.90;;;;;;5057838;28;20410;-72
2022/06/19 09:36:11;;;;;;;5.85;3.22;;;21.50;59.40;;;;;;5056717;28;20110;-72
2022/06/19 09:38:41;;;;;;;6.47;3.10;;;21.30;55.90;;;;;;5057093;28;20512;-72
2022/06/19 09:41:11;;;;;;;6.00;3.13;;;20.20;58.30;;;;;;5057959;28;20045;-72
2022/06/19 09:43:40;;;;;;;6.22;3.08;;;21.30;55.90;;;;;;5057503;28;20509;-72
2022/06/19 09:46:11;;;;;;;9.35;3.30;;;21.30;55.90;;;;;;5059321;28;20045;-72
2022/06/19 09:48:39;;;;;;;5.25;2.63;;;21.40;59.40;;;;;;5058113;28;20059;-72
2022/06/19 09:51:09;;;;;;;5.88;2.95;;;21.30;55.90;;;;;;5057270;28;20053;-72
2022/06/19 09:53:37;;;;;;;4.53;2.63;;;21.10;59.70;;;;;;5057681;28;20494;-72
2022/06/19 09:56:08;;;;;;;4.80;2.72;;;21.30;55.90;;;;;;5056739;28;20082;-72
2022/06/19 09:58:36;;;;;;;5.80;2.80;;;21.20;58.90;;;;;;5061604;28;20049;-73
2022/06/19 10:01:03;;;;;;;5.25;2.50;;;21.40;59.80;;;;;;5058164;28;20120;-71
2022/06/19 10:03:34;;;;;;;4.80;2.95;;;21.20;59.60;;;;;;5056447;28;20049;-71
2022/06/19 10:06:03;;;;;;;4.68;3.10;;;21.40;55.90;;;;;;5058091;28;20602;-71
2022/06/19 10:08:32;;;;;;;4.55;2.80;;;21.70;59.40;;;;;;5058674;28;20053;-71
2022/06/19 10:11:01;;;;;;;5.05;2.55;;;21.30;55.80;;;;;;5056992;28;20142;-71
2022/06/19 10:13:31;;;;;;;3.63;2.55;;;21.40;55.90;;;;;;5056742;28;20045;-71
2022/06/19 10:15:58;;;;;;;4.90;3.00;;;22.20;59.60;;;;;;5057716;28;20416;-71
2022/06/19 10:18:27;;;;;;;5.75;2.95;;;20.10;59.90;;;;;;5051521;28;20053;-72
2022/06/19 10:20:58;;;;;;;4.47;2.58;;;21.30;58.90;;;;;;5048234;28;20413;-70
2022/06/19 10:23:30;;;;;;;4.15;2.60;;;21.40;55.80;;;;;;5056825;28;20058;-72
2022/06/19 10:26:09;;;;;;;4.88;2.72;;;21.40;55.70;;;;;;5061111;28;20406;-70
2022/06/19 10:28:48;;;;;;;5.72;2.88;;;21.90;59.50;;;;;;5053721;28;20147;-71
2022/06/19 10:31:20;;;;;;;5.07;2.30;;;22.20;59.80;;;;;;5051255;28;20056;-72
2022/06/19 10:33:56;;;;;;;5.13;2.70;;;20.90;59.10;;;;;;5051165;28;20137;-73
2022/06/19 10:36:29;;;;;;;7.15;2.58;;;21.60;55.80;;;;;;5051373;28;20060;-72
2022/06/19 10:39:10;;;;;;;4.70;2.42;;;21.50;59.00;;;;;;5050849;28;20048;-72
2022/06/19 10:44:27;;;;;;;4.43;2.25;;;21.40;55.70;;;;;;5054972;28;20045;-73
2022/06/19 10:46:57;;;;;;;5.25;2.55;;;22.00;58.00;;;;;;5055923;28;20079;-72
2022/06/19 10:49:27;;;;;;;5.20;2.50;;;21.50;55.70;;;;;;5072604;28;20083;-71
2022/06/19 10:52:01;;;;;;;3.92;2.30;;;21.50;55.70;;;;;;5070251;28;20143;-72
2022/06/19 10:54:50;;;;;;;4.00;2.17;;;21.30;59.00;;;;;;5072079;28;20048;-72
2022/06/19 10:57:17;;;;;;;3.55;2.30;;;21.50;59.50;;;;;;5071858;28;20301;-71
2022/06/19 10:59:44;;;;;;;4.20;2.53;;;21.40;55.70;;;;;;5071118;28;20422;-71
2022/06/19 11:05:13;;;;;;;4.45;2.05;;;21.50;55.60;;;;;;5070650;28;20141;-72
2022/06/19 11:07:41;;;;;;;4.22;2.47;;;21.30;59.00;;;;;;5070431;28;20052;-72
2022/06/19 11:10:09;;;;;;;3.28;2.15;;;21.40;55.70;;;;;;5070859;28;20057;-72
2022/06/19 11:12:38;;;;;;;3.83;2.60;;;21.50;55.80;;;;;;5070510;28;20127;-72
2022/06/19 11:15:06;;;;;;;4.38;2.40;;;21.40;55.70;;;;;;5069282;28;20139;-72
2022/06/19 11:17:34;;;;;;;5.03;2.67;;;21.40;55.70;;;;;;5070067;28;20052;-72
2022/06/19 11:20:21;;;;;;;5.75;2.50;;;21.40;55.70;;;;;;5070244;28;20054;-72
2022/06/19 11:22:49;;;;;;;3.92;2.25;;;21.30;59.10;;;;;;5071362;28;20387;-73
2022/06/19 11:25:37;;;;;;;4.35;2.17;;;21.30;59.60;;;;;;5070324;28;20723;-73
2022/06/19 11:28:09;;;;;;;5.35;2.30;;;21.50;60.10;;;;;;5070057;28;20052;-72
2022/06/19 11:30:38;;;;;;;5.82;2.38;;;22.30;60.20;;;;;;5061347;28;20127;-72
2022/06/19 11:33:06;;;;;;;4.35;2.50;;;21.40;59.50;;;;;;5071237;28;20052;-72
2022/06/19 11:35:40;;;;;;;5.35;2.80;;;20.80;58.70;;;;;;5068936;28;20136;-72
2022/06/19 11:38:09;;;;;;;4.18;2.50;;;21.70;59.70;;;;;;5071287;28;20055;-72
2022/06/19 11:40:37;;;;;;;3.95;2.92;;;22.50;60.80;;;;;;5070107;28;20052;-72
2022/06/19 11:43:05;;;;;;;5.00;2.50;;;21.30;59.20;;;;;;5062056;28;20124;-72
2022/06/19 11:45:33;;;;;;;4.47;2.60;;;21.40;56.00;;;;;;5049923;28;20053;-72
2022/06/19 11:48:03;;;;;;;4.93;2.70;;;21.40;56.00;;;;;;5062451;28;20060;-72
2022/06/19 11:50:38;;;;;;;4.32;2.38;;;21.40;56.00;;;;;;5069876;28;20128;-72
2022/06/19 11:53:14;;;;;;;3.55;2.42;;;21.50;56.00;;;;;;5070484;28;20485;-72
2022/06/19 11:55:41;;;;;;;3.97;2.50;;;21.50;56.10;;;;;;5070263;28;20538;-72
2022/06/19 11:58:16;;;;;;;3.80;2.45;;;21.40;56.00;;;;;;5069422;28;20056;-72
2022/06/19 12:00:44;;;;;;;3.92;2.20;;;21.40;59.70;;;;;;5068192;28;20082;-72
2022/06/19 12:03:17;;;;;;;4.47;2.70;;;21.40;56.00;;;;;;5068223;28;20127;-71
2022/06/19 12:05:51;;;;;;;5.22;2.40;;;21.40;55.90;;;;;;5054873;28;20053;-72
2022/06/19 12:08:20;;;;;;;5.80;2.20;;;20.60;58.60;;;;;;5050032;28;20536;-72
2022/06/19 12:10:52;;;;;;;3.70;2.30;;;21.50;60.40;;;;;;5063932;28;20298;-73
2022/06/19 12:13:22;;;;;;;5.35;2.50;;;21.40;55.70;;;;;;5066630;28;20066;-72
2022/06/19 12:15:59;;;;;;;8.23;2.28;;;21.40;60.70;;;;;;5069404;28;20053;-72
2022/06/19 12:18:26;;;;;;;6.40;2.47;;;21.40;59.30;;;;;;5068757;28;20061;-73
2022/06/19 12:21:04;;;;;;;7.65;2.70;;;21.40;55.60;;;;;;5068516;28;20594;-73
2022/06/19 12:23:37;;;;;;;8.13;2.88;;;20.30;58.90;;;;;;5069812;28;20405;-72
2022/06/19 12:26:06;;;;;;;8.02;2.75;;;21.20;58.50;;;;;;5068893;28;20444;-72
2022/06/19 12:28:35;;;;;;;8.57;2.90;;;21.40;55.60;;;;;;5068575;28;20052;-72
2022/06/19 12:31:05;;;;;;;7.50;2.80;;;22.20;59.60;;;;;;5068372;28;20131;-73
2022/06/19 12:33:32;;;;;;;7.22;2.83;;;21.30;59.40;;;;;;5068541;28;20063;-73
2022/06/19 12:36:00;;;;;;;6.95;2.97;;;21.40;55.60;;;;;;5068729;28;20078;-73
2022/06/19 12:38:31;;;;;;;8.10;2.58;;;21.20;59.60;;;;;;5067116;28;20045;-72
2022/06/19 12:41:07;;;;;;;6.25;2.67;;;21.30;59.20;;;;;;5068705;28;20053;-73
2022/06/19 12:43:42;;;;;;;7.97;2.97;;;21.40;55.60;;;;;;5068791;28;20520;-72
2022/06/19 12:46:14;;;;;;;6.38;2.58;;;21.40;55.60;;;;;;5068528;28;20131;-72
2022/06/19 12:48:45;;;;;;;7.15;2.40;;;20.80;58.70;;;;;;5068335;28;20059;-72
2022/06/19 12:51:14;;;;;;;7.88;2.58;;;21.40;55.80;;;;;;5068982;28;20477;-72
2022/06/19 12:53:58;;;;;;;5.13;2.33;;;21.30;59.40;;;;;;5067504;28;20052;-72
2022/06/19 12:56:35;;;;;;;7.13;2.47;;;21.70;59.50;;;;;;5068203;28;20071;-72
2022/06/19 12:59:20;;;;;;;8.93;3.40;;;21.40;55.50;;;;;;5068244;28;20075;-72
2022/06/19 13:01:49;;;;;;;5.55;2.60;;;21.20;55.50;;;;;;5068293;28;20401;-71
2022/06/19 13:04:26;;;;;;;6.95;2.58;;;21.60;55.80;;;;;;5067662;28;20135;-72
2022/06/19 13:07:08;;;;;;;5.20;2.25;;;21.30;57.90;;;;;;5069147;28;20048;-74
2022/06/19 13:09:45;;;;;;;5.97;2.28;;;21.50;59.80;;;;;;5058791;28;20052;-71
2022/06/19 13:12:16;;;;;;;5.03;2.28;;;21.60;55.90;;;;;;5055083;28;20051;-73
2022/06/19 13:14:51;;;;;;;4.38;2.17;;;22.70;60.50;;;;;;5055917;28;20140;-72